createdAt,value
2019-01-11T00:00:57.179Z,1.50
2019-01-11T00:03:26.598Z,1.50
2019-01-11T00:05:56.163Z,1.50
2019-01-11T00:08:25.461Z,1.50
2019-01-11T00:10:54.505Z,1.50
2019-01-11T00:13:23.521Z,1.60
2019-01-11T00:15:52.586Z,1.60
2019-01-11T00:18:21.505Z,1.60
2019-01-11T00:20:50.431Z,1.70
2019-01-11T00:23:19.454Z,1.60
2019-01-11T00:25:48.397Z,1.70
2019-01-11T00:28:17.520Z,1.60
2019-01-11T00:30:46.722Z,1.60
2019-01-11T00:33:16.206Z,1.50
2019-01-11T00:35:45.404Z,1.50
2019-01-11T00:38:14.637Z,1.40
2019-01-11T00:40:43.638Z,1.40
2019-01-11T00:43:15.103Z,1.50
2019-01-11T00:45:43.389Z,1.50
2019-01-11T00:48:12.393Z,1.50
2019-01-11T00:50:41.659Z,1.40
2019-01-11T00:53:11.980Z,1.40
2019-01-11T00:55:41.016Z,1.40
2019-01-11T00:58:10.068Z,1.40
2019-01-11T01:00:39.146Z,1.40
2019-01-11T01:03:08.161Z,1.40
2019-01-11T01:05:37.191Z,1.40
2019-01-11T01:08:06.241Z,1.40
2019-01-11T01:10:35.393Z,1.40
2019-01-11T01:13:04.432Z,1.40
2019-01-11T01:15:33.433Z,1.40
2019-01-11T01:18:02.461Z,1.40
2019-01-11T01:20:31.521Z,1.40
2019-01-11T01:23:00.763Z,1.40
2019-01-11T01:25:30.031Z,1.40
2019-01-11T01:27:58.996Z,1.40
2019-01-11T01:30:28.242Z,1.40
2019-01-11T01:32:57.455Z,1.40
2019-01-11T01:35:26.460Z,1.30
2019-01-11T01:37:55.702Z,1.40
2019-01-11T01:40:24.982Z,1.30
2019-01-11T01:42:53.902Z,1.40
2019-01-11T01:45:22.900Z,1.30
2019-01-11T01:47:51.826Z,1.40
2019-01-11T01:50:21.120Z,1.40
2019-01-11T01:52:50.087Z,1.40
2019-01-11T01:55:19.353Z,1.40
2019-01-11T01:57:48.328Z,1.40
2019-01-11T02:00:19.402Z,1.50
2019-01-11T02:02:48.723Z,1.50
2019-01-11T02:05:18.124Z,1.40
2019-01-11T02:07:47.377Z,1.40
2019-01-11T02:10:16.371Z,1.40
2019-01-11T02:12:45.365Z,1.40
2019-01-11T02:15:14.589Z,1.40
2019-01-11T02:17:44.058Z,1.40
2019-01-11T02:20:15.641Z,1.40
2019-01-11T02:22:45.096Z,1.40
2019-01-11T02:25:14.762Z,1.40
2019-01-11T02:27:43.908Z,1.40
2019-01-11T02:30:18.941Z,1.40
2019-01-11T02:32:52.957Z,1.40
2019-01-11T02:35:18.916Z,1.40
2019-01-11T02:37:48.043Z,1.40
2019-01-11T02:40:17.708Z,1.30
2019-01-11T02:42:46.952Z,1.40
2019-01-11T02:45:18.719Z,1.30
2019-01-11T02:47:47.716Z,1.30
2019-01-11T02:50:17.239Z,1.30
2019-01-11T02:52:46.538Z,1.30
2019-01-11T02:55:15.573Z,1.30
2019-01-11T02:57:44.873Z,1.30
2019-01-11T03:00:18.791Z,1.40
2019-01-11T03:02:48.069Z,1.40
2019-01-11T03:05:17.510Z,1.50
2019-01-11T03:07:46.823Z,1.50
2019-01-11T03:10:17.848Z,1.50
2019-01-11T03:12:46.878Z,1.60
2019-01-11T03:15:16.764Z,1.60
2019-01-11T03:17:46.273Z,1.60
2019-01-11T03:20:15.694Z,1.60
2019-01-11T03:22:44.734Z,1.60
2019-01-11T03:25:13.964Z,1.60
2019-01-11T03:27:43.568Z,1.60
2019-01-11T03:30:15.276Z,1.60
2019-01-11T03:32:44.297Z,1.60
2019-01-11T03:35:17.923Z,1.60
2019-01-11T03:37:51.076Z,1.60
2019-01-11T03:40:22.060Z,1.60
2019-01-11T03:42:51.904Z,1.60
2019-01-11T03:45:22.306Z,1.50
2019-01-11T03:47:51.332Z,1.50
2019-01-11T03:50:20.615Z,1.50
2019-01-11T03:52:49.571Z,1.40
2019-01-11T03:55:18.793Z,1.40
2019-01-11T03:57:48.116Z,1.40
2019-01-11T04:00:21.776Z,1.40
2019-01-11T04:02:51.040Z,1.40
2019-01-11T04:05:20.347Z,1.40
2019-01-11T04:07:49.481Z,1.40
2019-01-11T04:10:20.410Z,1.40
2019-01-11T04:12:49.416Z,1.40
2019-01-11T04:15:18.986Z,1.40
2019-01-11T04:17:59.486Z,1.40
2019-01-11T04:20:28.531Z,1.40
2019-01-11T04:22:58.510Z,1.50
2019-01-11T04:25:30.455Z,1.50
2019-01-11T04:27:59.365Z,1.50
2019-01-11T04:30:28.314Z,1.50
2019-01-11T04:32:57.754Z,1.50
2019-01-11T04:35:26.800Z,1.50
2019-01-11T04:37:56.066Z,1.50
2019-01-11T04:40:25.096Z,1.50
2019-01-11T04:42:54.278Z,1.50
2019-01-11T04:45:23.518Z,1.50
2019-01-11T04:47:52.514Z,1.40
2019-01-11T04:50:21.830Z,1.50
2019-01-11T04:52:50.817Z,1.40
2019-01-11T04:55:20.521Z,1.40
2019-01-11T04:57:49.522Z,1.30
2019-01-11T05:00:20.682Z,1.30
2019-01-11T05:02:49.765Z,1.30
2019-01-11T05:05:18.843Z,1.30
2019-01-11T05:07:48.149Z,1.30
2019-01-11T05:10:18.724Z,1.20
2019-01-11T05:12:47.713Z,1.20
2019-01-11T05:15:17.249Z,1.10
2019-01-11T05:17:46.289Z,1.20
2019-01-11T05:20:17.388Z,1.10
2019-01-11T05:22:46.630Z,1.10
2019-01-11T05:25:15.867Z,1.10
2019-01-11T05:27:44.876Z,1.10
2019-01-11T05:30:16.364Z,1.10
2019-01-11T05:32:45.528Z,1.00
2019-01-11T05:35:14.909Z,1.10
2019-01-11T05:37:44.138Z,1.00
2019-01-11T05:40:16.058Z,1.00
2019-01-11T05:42:45.221Z,1.10
2019-01-11T05:45:14.204Z,1.10
2019-01-11T05:47:43.254Z,1.10
2019-01-11T05:50:14.174Z,1.10
2019-01-11T05:52:43.407Z,1.10
2019-01-11T05:55:16.941Z,1.10
2019-01-11T05:58:04.884Z,1.10
2019-01-11T06:00:33.912Z,1.10
2019-01-11T06:03:03.325Z,1.10
2019-01-11T06:05:32.813Z,1.10
2019-01-11T06:08:07.899Z,1.10
2019-01-11T06:10:37.180Z,1.10
2019-01-11T06:13:06.054Z,1.10
2019-01-11T06:15:35.300Z,1.10
2019-01-11T06:18:04.374Z,1.10
2019-01-11T06:20:33.572Z,1.10
2019-01-11T06:23:02.986Z,1.00
2019-01-11T06:25:31.968Z,1.10
2019-01-11T06:28:01.149Z,1.10
2019-01-11T06:30:30.427Z,1.10
2019-01-11T06:32:59.696Z,1.10
2019-01-11T06:35:29.037Z,1.10
2019-01-11T06:37:58.068Z,1.10
2019-01-11T06:40:27.745Z,1.10
2019-01-11T06:42:56.764Z,1.10
2019-01-11T06:45:25.745Z,1.10
2019-01-11T06:47:54.924Z,1.10
2019-01-11T06:50:23.900Z,1.10
2019-01-11T06:52:53.179Z,1.00
2019-01-11T06:55:22.139Z,1.10
2019-01-11T06:57:51.396Z,1.10
2019-01-11T07:00:20.394Z,1.10
2019-01-11T07:02:49.650Z,1.10
2019-01-11T07:05:18.500Z,1.10
2019-01-11T07:07:47.519Z,1.10
2019-01-11T07:10:18.519Z,1.10
2019-01-11T07:12:47.524Z,1.10
2019-01-11T07:15:16.617Z,1.20
2019-01-11T07:17:45.569Z,1.20
2019-01-11T07:20:14.826Z,1.10
2019-01-11T07:22:43.822Z,1.10
2019-01-11T07:25:13.279Z,1.20
2019-01-11T07:27:54.271Z,1.20
2019-01-11T07:30:25.037Z,1.20
2019-01-11T07:32:53.957Z,1.30
2019-01-11T07:35:24.955Z,1.30
2019-01-11T07:37:54.028Z,1.30
2019-01-11T07:40:30.633Z,1.20
2019-01-11T07:42:59.924Z,1.20
2019-01-11T07:45:28.963Z,1.20
2019-01-11T07:47:57.956Z,1.20
2019-01-11T07:50:27.064Z,1.20
2019-01-11T07:52:56.485Z,1.30
2019-01-11T07:55:25.392Z,1.30
2019-01-11T07:57:54.456Z,1.30
2019-01-11T08:00:23.620Z,1.30
2019-01-11T08:02:57.352Z,1.40
2019-01-11T08:05:26.625Z,1.40
2019-01-11T08:07:55.908Z,1.40
2019-01-11T08:10:25.047Z,1.40
2019-01-11T08:12:54.128Z,1.40
2019-01-11T08:15:23.291Z,1.40
2019-01-11T08:17:52.389Z,1.40
2019-01-11T08:20:21.459Z,1.40
2019-01-11T08:22:50.708Z,1.40
2019-01-11T08:25:19.898Z,1.30
2019-01-11T08:27:49.776Z,1.30
2019-01-11T08:30:18.819Z,1.30
2019-01-11T08:32:48.123Z,1.30
2019-01-11T08:35:17.128Z,1.30
2019-01-11T08:37:46.837Z,1.20
2019-01-11T08:40:16.003Z,1.20
2019-01-11T08:42:45.042Z,1.20
2019-01-11T08:45:14.168Z,1.20
2019-01-11T08:47:43.220Z,1.10
2019-01-11T08:50:16.483Z,1.10
2019-01-11T08:52:45.513Z,1.10
2019-01-11T08:55:14.816Z,1.20
2019-01-11T08:57:44.077Z,1.10
2019-01-11T09:00:13.721Z,1.10
2019-01-11T09:02:42.957Z,1.20
2019-01-11T09:05:12.225Z,1.20
2019-01-11T09:07:42.269Z,1.20
2019-01-11T09:10:12.826Z,1.10
2019-01-11T09:12:42.099Z,1.10
2019-01-11T09:15:11.477Z,1.20
2019-01-11T09:17:58.680Z,1.10
2019-01-11T09:20:28.056Z,1.10
2019-01-11T09:22:57.318Z,1.10
2019-01-11T09:25:26.377Z,1.10
2019-01-11T09:27:55.797Z,1.10
2019-01-11T09:30:24.818Z,1.00
2019-01-11T09:32:53.843Z,1.10
2019-01-11T09:35:23.246Z,1.10
2019-01-11T09:37:52.281Z,1.00
2019-01-11T09:40:21.516Z,1.10
2019-01-11T09:42:50.769Z,1.10
2019-01-11T09:45:19.827Z,1.10
2019-01-11T09:47:48.973Z,1.20
2019-01-11T09:50:17.806Z,1.20
2019-01-11T09:52:46.973Z,1.10
2019-01-11T09:55:15.915Z,1.10
2019-01-11T09:57:45.240Z,1.10
2019-01-11T10:00:18.249Z,1.20
2019-01-11T10:02:54.478Z,1.10
2019-01-11T10:05:23.500Z,1.10
2019-01-11T10:07:52.797Z,1.20
2019-01-11T10:10:22.109Z,1.20
2019-01-11T10:12:52.865Z,1.10
2019-01-11T10:15:22.039Z,1.10
2019-01-11T10:17:52.046Z,1.10
2019-01-11T10:20:21.319Z,1.10
2019-01-11T10:22:50.541Z,1.10
2019-01-11T10:25:21.132Z,1.10
2019-01-11T10:27:50.069Z,1.10
2019-01-11T10:30:22.186Z,1.00
2019-01-11T10:32:51.371Z,1.00
2019-01-11T10:35:20.448Z,1.10
2019-01-11T10:37:50.672Z,1.00
2019-01-11T10:40:19.889Z,1.10
2019-01-11T10:42:49.707Z,1.10
2019-01-11T10:45:21.513Z,1.20
2019-01-11T10:47:52.994Z,1.20
2019-01-11T10:50:22.264Z,1.20
2019-01-11T10:52:51.455Z,1.20
2019-01-11T10:55:20.500Z,1.20
2019-01-11T10:57:49.639Z,1.10
2019-01-11T11:00:21.304Z,1.10
2019-01-11T11:02:50.934Z,1.10
2019-01-11T11:05:20.056Z,1.10
2019-01-11T11:07:50.054Z,1.20
2019-01-11T11:10:19.198Z,1.10
2019-01-11T11:12:48.345Z,1.10
2019-01-11T11:15:19.232Z,1.10
2019-01-11T11:17:48.364Z,1.20
2019-01-11T11:20:19.344Z,1.20
2019-01-11T11:22:48.527Z,1.20
2019-01-11T11:25:19.632Z,1.20
2019-01-11T11:27:49.000Z,1.30
2019-01-11T11:30:19.433Z,1.30
2019-01-11T11:32:58.623Z,1.30
2019-01-11T11:35:28.750Z,1.30
2019-01-11T11:37:58.273Z,1.30
2019-01-11T11:40:28.419Z,1.40
2019-01-11T11:42:57.317Z,1.30
2019-01-11T11:45:27.143Z,1.20
2019-01-11T11:47:56.172Z,1.40
2019-01-11T11:50:25.481Z,1.40
2019-01-11T11:52:54.781Z,1.40
2019-01-11T11:55:23.782Z,1.50
2019-01-11T11:57:53.084Z,1.50
2019-01-11T12:00:25.672Z,1.50
2019-01-11T12:02:54.736Z,1.50
2019-01-11T12:05:23.942Z,1.50
2019-01-11T12:07:52.934Z,1.40
2019-01-11T12:10:22.190Z,1.40
2019-01-11T12:12:51.477Z,1.40
2019-01-11T12:15:20.761Z,1.50
2019-01-11T12:17:49.666Z,1.50
2019-01-11T12:20:25.044Z,1.60
2019-01-11T12:22:54.193Z,1.50
2019-01-11T12:25:23.258Z,1.60
2019-01-11T12:27:52.718Z,1.50
2019-01-11T12:30:21.576Z,1.60
2019-01-11T12:32:50.778Z,1.60
2019-01-11T12:35:19.680Z,1.60
2019-01-11T12:37:49.115Z,1.60
2019-01-11T12:40:18.677Z,1.60
2019-01-11T12:42:48.050Z,1.60
2019-01-11T12:45:17.264Z,1.70
2019-01-11T12:47:46.358Z,1.70
2019-01-11T12:50:20.862Z,1.70
2019-01-11T12:52:50.482Z,1.70
2019-01-11T12:55:23.690Z,1.70
2019-01-11T12:57:52.887Z,1.70
2019-01-11T13:00:56.009Z,1.70
2019-01-11T13:03:25.077Z,1.70
2019-01-11T13:05:54.344Z,1.70
2019-01-11T13:08:23.496Z,1.60
2019-01-11T13:10:52.522Z,1.70
2019-01-11T13:13:22.054Z,1.70
2019-01-11T13:15:50.987Z,1.60
2019-01-11T13:18:19.923Z,1.60
2019-01-11T13:20:49.241Z,1.60
2019-01-11T13:23:18.348Z,1.60
2019-01-11T13:25:47.417Z,1.70
2019-01-11T13:28:16.704Z,1.70
2019-01-11T13:30:45.765Z,1.70
2019-01-11T13:33:14.754Z,1.60
2019-01-11T13:35:43.752Z,1.60
2019-01-11T13:38:12.990Z,1.60
2019-01-11T13:40:42.112Z,1.70
2019-01-11T13:43:11.774Z,1.70
2019-01-11T13:45:41.019Z,1.70
2019-01-11T13:48:10.364Z,1.70
2019-01-11T13:50:40.880Z,1.60
2019-01-11T13:53:11.629Z,1.70
2019-01-11T13:55:40.814Z,1.70
2019-01-11T13:58:09.832Z,1.70
2019-01-11T14:00:39.157Z,1.80
2019-01-11T14:03:08.286Z,1.80
2019-01-11T14:05:37.417Z,1.80
2019-01-11T14:08:07.810Z,1.90
2019-01-11T14:10:36.853Z,1.90
2019-01-11T14:13:05.940Z,1.90
2019-01-11T14:15:34.931Z,1.90
2019-01-11T14:18:04.624Z,1.90
2019-01-11T14:20:33.910Z,1.90
2019-01-11T14:23:02.834Z,1.90
2019-01-11T14:25:32.040Z,1.90
2019-01-11T14:28:01.030Z,1.90
2019-01-11T14:30:30.289Z,1.90
2019-01-11T14:32:59.388Z,1.90
2019-01-11T14:35:28.736Z,1.90
2019-01-11T14:37:58.090Z,1.90
2019-01-11T14:40:27.136Z,1.90
2019-01-11T14:42:56.167Z,1.90
2019-01-11T14:45:25.426Z,1.90
2019-01-11T14:47:54.313Z,2.00
2019-01-11T14:50:23.331Z,2.00
2019-01-11T14:52:52.346Z,1.90
2019-01-11T14:55:21.542Z,1.90
2019-01-11T14:57:50.616Z,1.90
2019-01-11T15:00:21.745Z,1.90
2019-01-11T15:02:50.774Z,1.90
2019-01-11T15:05:20.109Z,1.90
2019-01-11T15:07:49.429Z,2.00
2019-01-11T15:10:18.514Z,2.00
2019-01-11T15:12:48.313Z,2.00
2019-01-11T15:15:17.564Z,2.10
2019-01-11T15:17:46.965Z,2.10
2019-01-11T15:20:17.730Z,2.00
2019-01-11T15:22:47.276Z,2.00
2019-01-11T15:25:16.585Z,1.90
2019-01-11T15:27:46.044Z,1.90
2019-01-11T15:30:17.192Z,2.00
2019-01-11T15:32:48.505Z,2.00
2019-01-11T15:35:17.934Z,1.60
2019-01-11T15:37:46.961Z,2.00
2019-01-11T15:40:21.790Z,2.00
2019-01-11T15:42:50.728Z,2.00
2019-01-11T15:45:19.768Z,2.00
2019-01-11T15:47:48.871Z,2.00
2019-01-11T15:50:47.512Z,2.00
2019-01-11T15:53:16.536Z,2.00
2019-01-11T15:55:45.833Z,1.90
2019-01-11T15:58:14.832Z,1.80
2019-01-11T16:00:45.734Z,1.80
2019-01-11T16:03:14.930Z,1.80
2019-01-11T16:05:43.888Z,1.80
2019-01-11T16:08:13.141Z,1.90
2019-01-11T16:11:47.111Z,1.90
2019-01-11T16:14:59.748Z,1.80
2019-01-11T16:17:29.233Z,1.90
2019-01-11T16:19:58.311Z,1.90
2019-01-11T16:22:27.397Z,1.90
2019-01-11T16:24:56.502Z,1.90
2019-01-11T16:27:26.304Z,1.90
2019-01-11T16:29:55.373Z,1.90
2019-01-11T16:32:24.586Z,1.90
2019-01-11T16:34:54.230Z,1.90
2019-01-11T16:37:23.502Z,1.90
2019-01-11T16:39:52.419Z,1.90
2019-01-11T16:42:21.389Z,1.90
2019-01-11T16:44:50.400Z,1.90
2019-01-11T16:47:19.446Z,1.90
2019-01-11T16:49:48.719Z,1.90
2019-01-11T16:52:18.783Z,2.00
2019-01-11T16:54:47.889Z,2.00
2019-01-11T16:57:16.904Z,2.00
2019-01-11T16:59:46.312Z,2.00
2019-01-11T17:02:15.620Z,2.00
2019-01-11T17:04:44.726Z,2.00
2019-01-11T17:07:14.248Z,2.00
2019-01-11T17:09:43.415Z,2.00
2019-01-11T17:12:13.012Z,2.00
2019-01-11T17:14:42.013Z,2.00
2019-01-11T17:17:11.213Z,2.00
2019-01-11T17:19:40.309Z,2.00
2019-01-11T17:22:09.385Z,2.00
2019-01-11T17:24:38.400Z,2.00
2019-01-11T17:27:07.444Z,2.00
2019-01-11T17:29:36.467Z,2.00
2019-01-11T17:32:05.484Z,2.00
2019-01-11T17:34:34.979Z,2.10
2019-01-11T17:37:04.372Z,2.10
2019-01-11T17:39:33.281Z,2.10
2019-01-11T17:42:02.529Z,2.10
2019-01-11T17:44:32.099Z,2.20
2019-01-11T17:47:01.225Z,2.20
2019-01-11T17:49:30.403Z,2.20
2019-01-11T17:51:59.595Z,2.20
2019-01-11T17:54:28.780Z,2.20
2019-01-11T17:56:57.717Z,2.10
2019-01-11T17:59:26.745Z,2.10
2019-01-11T18:01:56.072Z,2.10
2019-01-11T18:04:25.401Z,2.10
2019-01-11T18:06:54.317Z,2.10
2019-01-11T18:09:23.342Z,2.20
2019-01-11T18:11:52.264Z,2.20
2019-01-11T18:14:21.181Z,2.20
2019-01-11T18:16:50.354Z,2.20
2019-01-11T18:19:19.549Z,2.20
2019-01-11T18:21:48.701Z,2.30
2019-01-11T18:24:17.741Z,2.30
2019-01-11T18:26:47.431Z,2.30
2019-01-11T18:29:19.444Z,2.30
2019-01-11T18:31:48.397Z,2.30
2019-01-11T18:34:17.658Z,2.30
2019-01-11T18:36:46.664Z,2.40
2019-01-11T18:39:15.876Z,2.40
2019-01-11T18:41:44.895Z,2.40
2019-01-11T18:44:14.424Z,2.40
2019-01-11T18:46:45.901Z,2.40
2019-01-11T18:49:15.077Z,2.40
2019-01-11T18:51:44.269Z,2.30
2019-01-11T18:54:13.136Z,2.30
2019-01-11T18:56:42.028Z,2.30
2019-01-11T18:59:11.131Z,2.30
2019-01-11T19:01:40.201Z,2.30
2019-01-11T19:04:09.894Z,2.30
2019-01-11T19:06:39.273Z,2.30
2019-01-11T19:09:09.088Z,2.30
2019-01-11T19:11:38.032Z,2.40
2019-01-11T19:14:07.197Z,2.40
2019-01-11T19:16:36.099Z,2.40
2019-01-11T19:19:05.375Z,2.40
2019-01-11T19:21:34.326Z,2.40
2019-01-11T19:24:03.418Z,2.40
2019-01-11T19:26:32.440Z,2.40
2019-01-11T19:29:02.081Z,2.30
2019-01-11T19:31:31.068Z,2.30
2019-01-11T19:34:00.347Z,2.30
2019-01-11T19:36:29.352Z,2.30
2019-01-11T19:38:58.263Z,2.30
2019-01-11T19:41:27.616Z,2.40
2019-01-11T19:43:56.603Z,2.50
2019-01-11T19:46:25.567Z,2.50
2019-01-11T19:48:54.985Z,2.50
2019-01-11T19:51:27.119Z,2.60
2019-01-11T19:53:56.220Z,2.60
2019-01-11T19:56:25.484Z,2.60
2019-01-11T19:58:54.574Z,2.70
2019-01-11T20:01:23.700Z,2.70
2019-01-11T20:03:53.324Z,2.70
2019-01-11T20:06:22.378Z,2.70
2019-01-11T20:08:51.729Z,2.70
2019-01-11T20:11:21.168Z,2.70
2019-01-11T20:13:50.844Z,2.80
2019-01-11T20:16:19.981Z,2.80
2019-01-11T20:18:49.151Z,2.90
2019-01-11T20:21:18.386Z,2.90
2019-01-11T20:23:47.796Z,2.90
2019-01-11T20:26:17.104Z,2.90
2019-01-11T20:28:46.001Z,2.80
2019-01-11T20:31:15.347Z,2.70
2019-01-11T20:33:44.513Z,2.70
2019-01-11T20:36:13.586Z,2.60
2019-01-11T20:38:42.589Z,2.50
2019-01-11T20:41:11.851Z,2.50
2019-01-11T20:43:40.788Z,2.50
2019-01-11T20:46:10.442Z,2.50
2019-01-11T20:48:40.015Z,2.60
2019-01-11T20:51:08.928Z,2.60
2019-01-11T20:53:41.834Z,2.60
2019-01-11T20:56:09.503Z,2.60
2019-01-11T20:58:38.772Z,2.60
2019-01-11T21:01:08.221Z,2.70
2019-01-11T21:03:37.261Z,2.70
2019-01-11T21:06:06.506Z,2.80
2019-01-11T21:08:35.589Z,2.80
2019-01-11T21:11:04.654Z,2.80
2019-01-11T21:13:33.936Z,2.80
2019-01-11T21:16:03.108Z,2.90
2019-01-11T21:18:32.171Z,2.90
2019-01-11T21:21:01.425Z,2.90
2019-01-11T21:23:30.734Z,2.90
2019-01-11T21:25:59.884Z,2.90
2019-01-11T21:28:28.832Z,2.90
2019-01-11T21:30:57.897Z,2.90
2019-01-11T21:33:26.886Z,2.90
2019-01-11T21:35:56.229Z,3.00
2019-01-11T21:38:25.363Z,3.00
2019-01-11T21:40:54.366Z,3.00
2019-01-11T21:43:23.511Z,3.00
2019-01-11T21:45:52.534Z,3.00
2019-01-11T21:48:22.161Z,3.10
2019-01-11T21:50:51.430Z,3.10
2019-01-11T21:53:20.426Z,3.10
2019-01-11T21:55:49.518Z,3.10
2019-01-11T21:58:18.679Z,3.10
2019-01-11T22:00:48.840Z,3.10
2019-01-11T22:03:19.777Z,3.10
2019-01-11T22:05:49.054Z,3.10
2019-01-11T22:08:18.352Z,3.10
2019-01-11T22:10:47.388Z,3.10
2019-01-11T22:13:16.294Z,3.10
2019-01-11T22:15:45.407Z,3.10
2019-01-11T22:18:14.441Z,3.10
2019-01-11T22:20:43.685Z,3.10
2019-01-11T22:23:12.644Z,3.10
2019-01-11T22:25:41.642Z,3.10
2019-01-11T22:28:10.581Z,3.10
2019-01-11T22:30:40.141Z,3.10
2019-01-11T22:33:09.192Z,3.10
2019-01-11T22:35:38.472Z,3.10
2019-01-11T22:38:07.458Z,3.10
2019-01-11T22:40:36.753Z,3.00
2019-01-11T22:43:05.964Z,3.10
2019-01-11T22:45:34.929Z,3.10
2019-01-11T22:48:04.222Z,3.10
2019-01-11T22:50:33.722Z,3.10
2019-01-11T22:53:02.867Z,3.10
2019-01-11T22:55:31.852Z,3.20
2019-01-11T22:58:00.752Z,3.20
2019-01-11T23:00:51.824Z,3.20
2019-01-11T23:03:24.576Z,3.20
2019-01-11T23:05:57.023Z,3.20
2019-01-11T23:08:26.284Z,3.20
2019-01-11T23:11:17.057Z,3.20
2019-01-11T23:13:46.064Z,3.20
2019-01-11T23:16:34.860Z,3.20
2019-01-11T23:19:04.165Z,3.20
2019-01-11T23:21:33.118Z,3.20
2019-01-11T23:24:02.125Z,3.20
2019-01-11T23:26:31.772Z,3.30
2019-01-11T23:29:00.688Z,3.30
2019-01-11T23:31:29.705Z,3.30
2019-01-11T23:33:58.880Z,3.30
2019-01-11T23:36:27.747Z,3.30
2019-01-11T23:38:56.652Z,3.30
2019-01-11T23:41:25.583Z,3.40
2019-01-11T23:43:54.645Z,3.40
2019-01-11T23:46:23.681Z,3.40
2019-01-11T23:48:52.704Z,3.30
2019-01-11T23:51:21.670Z,3.30
2019-01-11T23:53:51.152Z,3.30
2019-01-11T23:56:20.070Z,3.30
2019-01-11T23:58:49.281Z,3.40
